Stark City, MO (64866)

07:18 AM CDT del 28 Luglio 2016 (GMT -0500)
South east of Granby | | Change Station

Alt. 1217 ft 36.89 °N, 94.23 °W | Updated 10 seconds ago

Clear
Sereno
69.3 °F
Sembra 69.3 °F
N
0.0
Vento Variabile Vento da Sud
Gusts 2.0 mph

Oggi
Massima -- | Minima -- °F
--% Possibilità di precip.
Ieri
Massima -- | Minima -- °F
Precip. -- in
Pressione 29.99 in
Visibilità 7.0 miglia
Nuvole Sereno
Punto di rugiada 68 °F
Umidità 97%
Piovosità 0.00 in
Spessore del manto nevoso Non disponibile.
6:19 AM 8:26 PM
Luna calante, 32% visible
METAR KHFJ 281150Z AUTO 18003KT 7SM CLR 20/20 A2999 RMK AO2
Pressione 29.99 in
Visibilità 7.0 miglia
Nuvole Sereno
Punto di rugiada 68 °F
Umidità 97%
Piovosità 0.00 in
Spessore del manto nevoso Non disponibile.
6:19 AM 8:26 PM
Luna calante, 32% visible
METAR KHFJ 281150Z AUTO 18003KT 7SM CLR 20/20 A2999 RMK AO2

10-Day Weather Forecast

Almanac

Astronomia

Jul. 28, 2016 Alba Tramonto
Ora attuale
Crepuscolo civile
Crepuscolo nautico
Crepuscolo astronomico
Luna
Estensione della luce visibile
Lunghezza del giorno
Tomorrow will be .
, % of the Moon is Illuminated

Gli estremi di oggi

State Highs State Lows

Community

WunderPhotos

Upload Photos

1,928,098 foto caricate!

WunderBlog® & News

Nearby

Qualità dell'aria

  Qualità dell'aria Indice AQ Inquinante
Not available.

Profondità neve

Stazione Profondità Altitudine

Attività sismica

Città  Distanza Mag. Data & Ora
Minimo Magnitudo Mostrato è 2.5.

Temperature delle acque costiere

Località Temperatura

Stations

Stazioni meteo nelle vicinanze

Ubicazione della stazione Temp. Raffreddamento del vento Punto di rugiada Umidità Vento Precip. Alt. Aggiornato Tipo
                   

Watches & Warnings

There are currently no watches in effect.